createdAt,value
2023-02-11T00:01:43.589Z,26.80
2023-02-11T00:04:10.829Z,27.50
2023-02-11T00:06:38.210Z,25.80
2023-02-11T00:09:06.709Z,26.40
2023-02-11T00:11:34.870Z,25.70
2023-02-11T00:16:33.651Z,21.60
2023-02-11T00:19:08.686Z,25.30
2023-02-11T00:21:39.322Z,25.30
2023-02-11T00:24:09.731Z,25.20
2023-02-11T00:26:45.643Z,27.10
2023-02-11T00:29:13.365Z,31.30
2023-02-11T00:31:41.379Z,33.60
2023-02-11T00:34:12.321Z,32.70
2023-02-11T00:36:49.661Z,35.70
2023-02-11T00:39:22.778Z,37.60
2023-02-11T00:41:54.995Z,40.60
2023-02-11T00:44:22.806Z,35.80
2023-02-11T00:46:53.100Z,29.10
2023-02-11T00:49:25.369Z,34.10
2023-02-11T00:51:59.481Z,31.30
2023-02-11T00:54:32.276Z,28.10
2023-02-11T00:57:02.794Z,25.90
2023-02-11T00:59:35.777Z,27.90
2023-02-11T01:02:18.062Z,32.10
2023-02-11T01:04:49.022Z,21.00
2023-02-11T01:07:34.094Z,21.80
2023-02-11T01:10:04.365Z,18.80
2023-02-11T01:12:36.479Z,18.90
2023-02-11T01:15:30.616Z,20.00
2023-02-11T01:18:04.472Z,19.20
2023-02-11T01:20:34.918Z,19.90
2023-02-11T01:23:02.308Z,20.00
2023-02-11T01:25:32.538Z,24.30
2023-02-11T01:28:02.817Z,21.30
2023-02-11T01:30:35.173Z,22.30
2023-02-11T01:33:07.245Z,23.80
2023-02-11T01:35:37.051Z,26.40
2023-02-11T01:38:07.094Z,32.10
2023-02-11T01:40:39.644Z,37.20
2023-02-11T01:43:15.495Z,37.60
2023-02-11T01:45:47.950Z,33.90
2023-02-11T01:48:27.202Z,30.60
2023-02-11T01:51:09.250Z,31.10
2023-02-11T01:54:00.719Z,31.10
2023-02-11T01:56:56.490Z,26.70
2023-02-11T01:59:57.712Z,24.40
2023-02-11T02:02:44.259Z,24.00
2023-02-11T02:05:20.664Z,23.80
2023-02-11T02:08:21.963Z,24.10
2023-02-11T02:10:56.581Z,23.70
2023-02-11T02:13:25.508Z,23.10
2023-02-11T02:16:05.203Z,24.50
2023-02-11T02:18:49.033Z,22.90
2023-02-11T02:21:56.909Z,24.40
2023-02-11T02:25:01.251Z,24.00
2023-02-11T02:28:12.662Z,24.00
2023-02-11T02:31:12.063Z,23.40
2023-02-11T02:34:19.210Z,22.40
2023-02-11T02:37:28.647Z,25.60
2023-02-11T02:40:02.237Z,20.50
2023-02-11T02:42:31.245Z,21.80
2023-02-11T02:45:01.893Z,23.00
2023-02-11T02:47:32.609Z,29.30
2023-02-11T02:50:00.364Z,31.60
2023-02-11T02:53:05.694Z,36.00
2023-02-11T02:56:23.555Z,37.50
2023-02-11T02:59:47.229Z,31.50
2023-02-11T03:02:57.687Z,26.70
2023-02-11T03:08:40.502Z,24.30
2023-02-11T03:11:15.758Z,20.60
2023-02-11T03:13:45.275Z,21.60
2023-02-11T03:16:23.238Z,19.50
2023-02-11T03:21:28.939Z,17.60
2023-02-11T03:24:10.853Z,19.10
2023-02-11T03:26:51.747Z,20.10
2023-02-11T03:29:41.492Z,19.90
2023-02-11T03:32:25.131Z,19.20
2023-02-11T03:35:41.737Z,18.90
2023-02-11T03:38:21.807Z,19.70
2023-02-11T03:40:54.431Z,20.60
2023-02-11T03:43:49.063Z,20.10
2023-02-11T03:46:23.992Z,18.90
2023-02-11T03:49:03.128Z,18.60
2023-02-11T03:51:36.646Z,18.80
2023-02-11T03:54:23.533Z,21.80
2023-02-11T03:57:03.179Z,20.70
2023-02-11T03:59:30.842Z,23.70
2023-02-11T04:01:59.685Z,30.90
2023-02-11T04:04:31.690Z,33.10
2023-02-11T04:07:03.952Z,32.00
2023-02-11T04:09:36.330Z,29.60
2023-02-11T04:12:04.182Z,26.30
2023-02-11T04:14:37.903Z,24.60
2023-02-11T04:17:08.748Z,21.20
2023-02-11T04:19:39.591Z,20.90
2023-02-11T04:22:10.754Z,19.70
2023-02-11T04:24:40.968Z,18.40
2023-02-11T04:27:13.927Z,20.10
2023-02-11T04:29:46.714Z,18.90
2023-02-11T04:32:20.083Z,20.50
2023-02-11T04:34:52.580Z,19.70
2023-02-11T04:37:28.530Z,16.70
2023-02-11T04:39:59.265Z,18.40
2023-02-11T04:42:28.878Z,17.60
2023-02-11T04:45:05.657Z,16.70
2023-02-11T04:47:38.431Z,18.10
2023-02-11T04:50:06.711Z,17.50
2023-02-11T04:55:01.771Z,13.30
2023-02-11T04:57:28.944Z,16.10
2023-02-11T04:59:56.486Z,15.50
2023-02-11T05:02:26.343Z,17.80
2023-02-11T05:04:59.718Z,22.20
2023-02-11T05:07:32.361Z,23.30
2023-02-11T05:09:59.786Z,25.70
2023-02-11T05:12:36.770Z,22.00
2023-02-11T05:15:07.309Z,21.60
2023-02-11T05:17:40.881Z,19.40
2023-02-11T05:20:09.552Z,18.60
2023-02-11T05:22:37.028Z,16.70
2023-02-11T05:25:08.253Z,14.70
2023-02-11T05:27:36.325Z,14.50
2023-02-11T05:32:34.740Z,12.40
2023-02-11T05:35:06.011Z,14.20
2023-02-11T05:37:39.618Z,14.80
2023-02-11T05:40:10.535Z,15.30
2023-02-11T05:42:41.134Z,14.20
2023-02-11T05:45:12.079Z,14.80
2023-02-11T05:47:39.440Z,14.80
2023-02-11T05:50:07.152Z,14.10
2023-02-11T05:52:36.921Z,15.90
2023-02-11T05:55:25.483Z,14.50
2023-02-11T05:57:55.112Z,17.50
2023-02-11T06:00:25.379Z,19.80
2023-02-11T06:02:52.769Z,20.10
2023-02-11T06:05:23.206Z,21.60
2023-02-11T06:07:50.753Z,17.90
2023-02-11T06:10:21.071Z,20.90
2023-02-11T06:12:50.880Z,21.10
2023-02-11T06:15:21.446Z,19.80
2023-02-11T06:17:48.963Z,20.60
2023-02-11T06:20:20.030Z,17.80
2023-02-11T06:22:47.490Z,17.80
2023-02-11T06:25:15.144Z,15.80
2023-02-11T06:27:42.534Z,15.50
2023-02-11T06:30:11.215Z,14.20
2023-02-11T06:32:44.846Z,13.80
2023-02-11T06:35:14.867Z,15.30
2023-02-11T06:37:47.994Z,19.60
2023-02-11T06:40:17.687Z,18.20
2023-02-11T06:42:45.073Z,17.30
2023-02-11T06:45:13.544Z,18.60
2023-02-11T06:47:50.287Z,14.60
2023-02-11T06:50:21.028Z,13.30
2023-02-11T06:52:48.374Z,14.00
2023-02-11T06:55:15.940Z,12.70
2023-02-11T06:57:45.789Z,11.10
2023-02-11T07:00:14.563Z,11.20
2023-02-11T07:02:44.263Z,12.40
2023-02-11T07:05:12.118Z,12.70
2023-02-11T07:07:39.775Z,12.80
2023-02-11T07:10:09.679Z,14.70
2023-02-11T07:12:37.652Z,17.20
2023-02-11T07:15:11.139Z,14.50
2023-02-11T07:17:41.273Z,15.30
2023-02-11T07:20:12.444Z,14.80
2023-02-11T07:22:42.738Z,14.80
2023-02-11T07:25:10.500Z,14.00
2023-02-11T07:27:40.727Z,12.90
2023-02-11T07:30:09.346Z,12.40
2023-02-11T07:32:40.094Z,14.50
2023-02-11T07:35:08.042Z,13.40
2023-02-11T07:37:36.320Z,15.00
2023-02-11T07:40:04.670Z,14.90
2023-02-11T07:42:32.252Z,15.40
2023-02-11T07:44:59.611Z,14.70
2023-02-11T07:47:34.300Z,15.70
2023-02-11T07:50:01.964Z,24.20
2023-02-11T07:52:32.285Z,30.20
2023-02-11T07:54:59.866Z,28.60
2023-02-11T07:57:30.182Z,26.50
2023-02-11T08:00:04.874Z,15.70
2023-02-11T08:02:42.820Z,13.50
2023-02-11T08:05:13.734Z,13.90
2023-02-11T08:07:41.318Z,13.40
2023-02-11T08:10:09.062Z,13.80
2023-02-11T08:12:38.495Z,13.00
2023-02-11T08:15:06.598Z,13.60
2023-02-11T08:17:40.098Z,11.90
2023-02-11T08:20:17.518Z,13.20
2023-02-11T08:22:59.312Z,11.40
2023-02-11T08:25:45.711Z,11.70
2023-02-11T08:28:25.586Z,12.70
2023-02-11T08:31:01.583Z,11.50
2023-02-11T08:33:46.888Z,11.90
2023-02-11T08:36:34.349Z,11.80
2023-02-11T08:39:35.356Z,12.30
2023-02-11T08:42:19.516Z,12.60
2023-02-11T08:44:52.603Z,11.70
2023-02-11T08:47:20.110Z,12.30
2023-02-11T08:50:03.996Z,12.60
2023-02-11T08:52:45.111Z,10.50
2023-02-11T08:55:17.443Z,11.80
2023-02-11T08:57:51.533Z,10.90
2023-02-11T09:00:32.527Z,11.60
2023-02-11T09:03:03.131Z,10.90
2023-02-11T09:06:28.175Z,10.70
2023-02-11T09:09:13.708Z,9.40
2023-02-11T09:11:57.412Z,10.80
2023-02-11T09:14:38.696Z,11.70
2023-02-11T09:17:09.674Z,11.30
2023-02-11T09:19:48.728Z,10.80
2023-02-11T09:22:37.078Z,9.70
2023-02-11T09:25:16.824Z,14.80
2023-02-11T09:27:44.791Z,13.10
2023-02-11T09:30:15.734Z,13.70
2023-02-11T09:32:56.093Z,12.00
2023-02-11T09:35:23.410Z,16.40
2023-02-11T09:37:51.109Z,16.70
2023-02-11T09:40:20.292Z,14.70
2023-02-11T09:43:02.344Z,13.50
2023-02-11T09:45:34.218Z,12.40
2023-02-11T09:48:22.673Z,12.30
2023-02-11T09:51:00.608Z,11.60
2023-02-11T09:53:41.266Z,12.60
2023-02-11T09:56:15.404Z,12.10
2023-02-11T09:58:44.824Z,11.40
2023-02-11T10:01:21.855Z,11.40
2023-02-11T10:04:19.193Z,10.90
2023-02-11T10:06:55.343Z,13.80
2023-02-11T10:09:57.486Z,11.80
2023-02-11T10:13:21.798Z,11.50
2023-02-11T10:16:18.127Z,11.00
2023-02-11T10:18:57.015Z,10.90
2023-02-11T10:21:46.650Z,11.50
2023-02-11T10:24:17.837Z,10.60
2023-02-11T10:26:46.107Z,10.80
2023-02-11T10:29:42.247Z,10.80
2023-02-11T10:32:35.778Z,10.40
2023-02-11T10:35:19.095Z,11.00
2023-02-11T10:37:49.683Z,11.30
2023-02-11T10:40:29.489Z,10.30
2023-02-11T10:43:04.350Z,10.60
2023-02-11T10:45:46.576Z,10.60
2023-02-11T10:48:41.750Z,10.80
2023-02-11T10:51:34.211Z,9.60
2023-02-11T10:54:04.430Z,9.90
2023-02-11T10:56:37.515Z,10.20
2023-02-11T10:59:43.482Z,10.30
2023-02-11T11:02:38.943Z,11.40
2023-02-11T11:05:21.086Z,9.90
2023-02-11T11:08:15.732Z,10.90
2023-02-11T11:11:06.688Z,10.20
2023-02-11T11:13:54.418Z,9.80
2023-02-11T11:16:37.390Z,10.00
2023-02-11T11:19:10.425Z,9.70
2023-02-11T11:21:51.288Z,9.90
2023-02-11T11:24:43.030Z,10.20
2023-02-11T11:27:22.183Z,9.70
2023-02-11T11:29:58.342Z,9.90
2023-02-11T11:32:33.341Z,9.20
2023-02-11T11:35:06.071Z,11.40
2023-02-11T11:37:42.385Z,10.00
2023-02-11T11:40:16.121Z,9.90
2023-02-11T11:42:44.554Z,10.20
2023-02-11T11:45:23.072Z,11.30
2023-02-11T11:51:23.958Z,9.00
2023-02-11T11:54:04.898Z,9.70
2023-02-11T11:56:45.264Z,10.40
2023-02-11T11:59:18.996Z,10.40
2023-02-11T12:02:32.118Z,10.10
2023-02-11T12:05:24.549Z,10.50
2023-02-11T12:07:59.679Z,11.30
2023-02-11T12:10:34.086Z,10.10
2023-02-11T12:13:53.267Z,11.00
2023-02-11T12:17:11.732Z,9.80
2023-02-11T12:20:34.788Z,10.40
2023-02-11T12:24:05.110Z,11.10
2023-02-11T12:26:45.272Z,10.50
2023-02-11T12:30:22.469Z,9.70
2023-02-11T12:33:40.160Z,10.60
2023-02-11T12:36:46.570Z,9.00
2023-02-11T12:39:58.255Z,10.90
2023-02-11T12:43:09.126Z,10.20
2023-02-11T12:46:11.849Z,9.90
2023-02-11T12:49:08.217Z,10.50
2023-02-11T12:52:11.956Z,10.80
2023-02-11T12:54:59.823Z,10.10
2023-02-11T12:57:37.649Z,11.30
2023-02-11T13:00:28.094Z,10.70
2023-02-11T13:06:21.688Z,9.90
2023-02-11T13:09:41.151Z,10.80
2023-02-11T13:12:35.954Z,10.60
2023-02-11T13:15:26.771Z,10.60
2023-02-11T13:18:40.597Z,10.80
2023-02-11T13:21:33.713Z,10.90
2023-02-11T13:24:32.962Z,11.20
2023-02-11T13:27:18.763Z,10.30
2023-02-11T13:30:27.294Z,10.70
2023-02-11T13:33:03.547Z,11.50
2023-02-11T13:35:43.905Z,10.80
2023-02-11T13:38:33.289Z,11.90
2023-02-11T13:41:21.301Z,10.60
2023-02-11T13:44:25.345Z,11.90
2023-02-11T13:47:23.078Z,13.40
2023-02-11T13:50:11.093Z,12.20
2023-02-11T13:52:58.986Z,12.60
2023-02-11T13:55:28.108Z,12.90
2023-02-11T13:58:10.960Z,11.60
2023-02-11T14:00:49.111Z,12.50
2023-02-11T14:03:49.874Z,12.10
2023-02-11T14:06:46.761Z,13.20
2023-02-11T14:09:23.527Z,12.10
2023-02-11T14:12:33.662Z,11.90
2023-02-11T14:15:27.969Z,12.70
2023-02-11T14:17:55.130Z,13.50
2023-02-11T14:21:27.568Z,13.00
2023-02-11T14:24:13.211Z,12.40
2023-02-11T14:26:59.595Z,12.60
2023-02-11T14:30:11.860Z,13.40
2023-02-11T14:33:26.777Z,13.30
2023-02-11T14:36:21.153Z,12.60
2023-02-11T14:39:10.016Z,13.30
2023-02-11T14:41:44.359Z,13.00
2023-02-11T14:44:30.378Z,13.40
2023-02-11T14:46:59.632Z,16.40
2023-02-11T14:49:40.890Z,14.80
2023-02-11T14:52:23.608Z,15.20
2023-02-11T14:54:57.198Z,16.60
2023-02-11T14:57:30.916Z,15.10
2023-02-11T15:00:06.287Z,14.60
2023-02-11T15:02:50.424Z,12.90
2023-02-11T15:05:32.408Z,14.70
2023-02-11T15:08:09.972Z,13.60
2023-02-11T15:10:45.387Z,13.90
2023-02-11T15:13:27.302Z,11.30
2023-02-11T15:16:29.575Z,13.80
2023-02-11T15:19:17.443Z,12.30
2023-02-11T15:21:50.855Z,11.40
2023-02-11T15:24:39.402Z,13.80
2023-02-11T15:27:18.730Z,12.70
2023-02-11T15:29:55.254Z,12.90
2023-02-11T15:32:29.097Z,12.90
2023-02-11T15:35:02.510Z,13.30
2023-02-11T15:37:33.100Z,13.80
2023-02-11T15:40:32.544Z,14.70
2023-02-11T15:43:10.110Z,14.40
2023-02-11T15:46:06.262Z,13.70
2023-02-11T15:48:43.796Z,12.20
2023-02-11T15:51:29.483Z,12.30
2023-02-11T15:54:30.069Z,11.80
2023-02-11T15:57:11.018Z,11.10
2023-02-11T16:00:04.619Z,12.80
2023-02-11T16:02:45.782Z,11.00
2023-02-11T16:05:35.163Z,11.30
2023-02-11T16:08:32.846Z,12.20
2023-02-11T16:11:08.973Z,10.50
2023-02-11T16:13:50.113Z,11.20
2023-02-11T16:16:31.768Z,11.90
2023-02-11T16:19:06.234Z,12.00
2023-02-11T16:21:54.992Z,12.00
2023-02-11T16:24:28.255Z,12.00
2023-02-11T16:27:07.006Z,11.80
2023-02-11T16:29:47.991Z,12.10
2023-02-11T16:32:26.665Z,11.10
2023-02-11T16:34:58.090Z,13.50
2023-02-11T16:37:37.212Z,12.80
2023-02-11T16:40:09.995Z,12.10
2023-02-11T16:42:40.114Z,14.20
2023-02-11T16:45:09.024Z,12.50
2023-02-11T16:47:48.413Z,12.20
2023-02-11T16:50:25.639Z,13.50
2023-02-11T16:52:55.953Z,13.20
2023-02-11T16:55:26.160Z,12.60
2023-02-11T16:57:59.081Z,12.80
2023-02-11T17:00:38.861Z,12.40
2023-02-11T17:03:23.259Z,17.00
2023-02-11T17:05:55.992Z,14.70
2023-02-11T17:08:26.958Z,13.50
2023-02-11T17:10:57.521Z,13.10
2023-02-11T17:13:34.275Z,14.50
2023-02-11T17:16:30.294Z,14.30
2023-02-11T17:19:02.469Z,13.80
2023-02-11T17:21:33.930Z,17.40
2023-02-11T17:24:08.253Z,16.70
2023-02-11T17:26:43.834Z,16.20
2023-02-11T17:29:21.959Z,15.60
2023-02-11T17:31:53.372Z,14.20
2023-02-11T17:34:24.607Z,12.90
2023-02-11T17:37:00.330Z,13.40
2023-02-11T17:39:42.854Z,13.00
2023-02-11T17:42:12.060Z,12.50
2023-02-11T17:44:47.815Z,12.70
2023-02-11T17:47:20.858Z,12.80
2023-02-11T17:49:55.836Z,12.80
2023-02-11T17:52:24.544Z,12.50
2023-02-11T17:54:51.978Z,13.20
2023-02-11T17:57:19.412Z,12.70
2023-02-11T17:59:49.026Z,12.00
2023-02-11T18:02:16.846Z,12.70
2023-02-11T18:04:44.249Z,14.70
2023-02-11T18:07:14.768Z,13.80
2023-02-11T18:09:42.647Z,13.40
2023-02-11T18:12:11.324Z,12.70
2023-02-11T18:14:46.870Z,13.10
2023-02-11T18:17:14.404Z,14.60
2023-02-11T18:19:43.113Z,15.00
2023-02-11T18:22:15.157Z,14.10
2023-02-11T18:24:45.191Z,15.30
2023-02-11T18:27:13.478Z,17.00
2023-02-11T18:29:44.100Z,16.10
2023-02-11T18:32:17.113Z,16.30
2023-02-11T18:34:56.526Z,17.70
2023-02-11T18:37:26.307Z,18.70
2023-02-11T18:39:58.919Z,16.90
2023-02-11T18:42:48.592Z,16.90
2023-02-11T18:45:24.250Z,16.30
2023-02-11T18:50:22.296Z,15.70
2023-02-11T18:57:53.190Z,12.30
2023-02-11T19:00:23.937Z,12.70
2023-02-11T19:02:53.287Z,13.30
2023-02-11T19:05:21.820Z,14.00
2023-02-11T19:07:49.029Z,13.90
2023-02-11T19:10:16.324Z,15.80
2023-02-11T19:12:43.832Z,15.00
2023-02-11T19:15:11.244Z,15.10
2023-02-11T19:17:38.691Z,14.10
2023-02-11T19:20:08.020Z,14.40
2023-02-11T19:22:38.620Z,15.40
2023-02-11T19:25:24.714Z,13.10
2023-02-11T19:28:04.356Z,12.90
2023-02-11T19:30:42.144Z,13.60
2023-02-11T19:33:17.702Z,14.20
2023-02-11T19:35:50.120Z,16.90
2023-02-11T19:38:20.395Z,15.90
2023-02-11T19:41:08.333Z,15.50
2023-02-11T19:43:44.726Z,14.10
2023-02-11T19:46:32.356Z,14.30
2023-02-11T19:49:09.939Z,14.30
2023-02-11T19:51:45.837Z,15.00
2023-02-11T19:54:16.289Z,15.40
2023-02-11T19:57:01.590Z,13.60
2023-02-11T19:59:44.377Z,15.60
2023-02-11T20:02:18.870Z,15.70
2023-02-11T20:04:57.862Z,16.30
2023-02-11T20:07:30.933Z,20.40
2023-02-11T20:10:12.849Z,18.60
2023-02-11T20:12:54.827Z,21.40
2023-02-11T20:15:30.498Z,18.80
2023-02-11T20:18:12.493Z,16.90
2023-02-11T20:21:05.067Z,17.50
2023-02-11T20:23:36.669Z,17.40
2023-02-11T20:26:12.356Z,18.40
2023-02-11T20:28:45.338Z,19.00
2023-02-11T20:31:24.461Z,18.90
2023-02-11T20:34:03.545Z,19.60
2023-02-11T20:37:02.176Z,20.30
2023-02-11T20:40:01.323Z,18.60
2023-02-11T20:42:53.386Z,17.00
2023-02-11T20:45:29.168Z,14.40
2023-02-11T20:48:04.944Z,15.70
2023-02-11T20:50:39.029Z,15.80
2023-02-11T20:53:34.317Z,18.10
2023-02-11T20:56:12.054Z,15.60
2023-02-11T20:58:54.014Z,16.60
2023-02-11T21:01:56.750Z,15.10
2023-02-11T21:04:33.860Z,16.20
2023-02-11T21:07:15.761Z,16.50
2023-02-11T21:09:56.453Z,14.70
2023-02-11T21:12:26.928Z,15.80
2023-02-11T21:15:16.239Z,15.20
2023-02-11T21:18:13.415Z,15.60
2023-02-11T21:20:54.805Z,15.70
2023-02-11T21:23:30.854Z,16.50
2023-02-11T21:26:07.137Z,17.30
2023-02-11T21:29:14.047Z,17.10
2023-02-11T21:32:02.302Z,18.20
2023-02-11T21:34:57.244Z,19.10
2023-02-11T21:37:49.842Z,18.60
2023-02-11T21:40:29.055Z,17.30
2023-02-11T21:43:06.287Z,18.70
2023-02-11T21:45:51.389Z,19.60
2023-02-11T21:48:23.834Z,19.50
2023-02-11T21:51:04.522Z,23.90
2023-02-11T21:53:42.968Z,22.20
2023-02-11T21:56:18.646Z,21.00
2023-02-11T21:58:54.116Z,20.90
2023-02-11T22:01:37.027Z,20.60
2023-02-11T22:04:07.714Z,21.40
2023-02-11T22:06:38.882Z,20.20
2023-02-11T22:09:15.674Z,19.20
2023-02-11T22:11:45.999Z,18.80
2023-02-11T22:14:19.598Z,18.80
2023-02-11T22:16:49.755Z,18.70
2023-02-11T22:19:25.979Z,19.70
2023-02-11T22:21:59.187Z,19.10
2023-02-11T22:24:40.351Z,17.70
2023-02-11T22:27:13.541Z,20.30
2023-02-11T22:29:49.907Z,20.30
2023-02-11T22:32:27.493Z,17.20
2023-02-11T22:35:03.761Z,15.50
2023-02-11T22:37:43.501Z,16.80
2023-02-11T22:40:14.567Z,17.70
2023-02-11T22:42:52.530Z,17.80
2023-02-11T22:45:32.495Z,17.40
2023-02-11T22:48:08.637Z,19.20
2023-02-11T22:50:44.102Z,18.70
2023-02-11T22:53:25.660Z,21.30
2023-02-11T22:56:16.348Z,18.00
2023-02-11T22:58:55.050Z,19.40
2023-02-11T23:01:33.239Z,17.80
2023-02-11T23:04:22.087Z,17.20
2023-02-11T23:06:54.442Z,15.60
2023-02-11T23:09:21.954Z,15.70
2023-02-11T23:12:03.459Z,14.20
2023-02-11T23:14:36.285Z,13.50
2023-02-11T23:17:06.603Z,13.60
2023-02-11T23:19:33.951Z,12.20
2023-02-11T23:22:06.729Z,12.30
2023-02-11T23:24:36.848Z,10.50
2023-02-11T23:27:04.715Z,10.70
2023-02-11T23:29:37.413Z,11.40
2023-02-11T23:32:19.982Z,11.10
2023-02-11T23:34:54.654Z,10.60
2023-02-11T23:37:31.735Z,11.70
2023-02-11T23:39:59.093Z,12.20
2023-02-11T23:42:26.936Z,13.00
2023-02-11T23:45:05.580Z,11.80
2023-02-11T23:47:58.409Z,12.20
2023-02-11T23:50:29.054Z,12.70
2023-02-11T23:53:06.594Z,12.70
2023-02-11T23:58:19.338Z,11.90
